Time;durP1;ratioP1;P1;durP2;ratioP2;P2;SDS_P1;SDS_P2;PMS_P1;PMS_P2;Temp;Humidity;BMP_temperature;BMP_pressure;BME280_temperature;BME280_humidity;BME280_pressure;Samples;Min_cycle;Max_cycle;Signal;HPM_P1;HPM_P2
2024/01/11 05:48:02;;;;;;;32.85;16.50;;;;;;;-4.09;100.00;103339.03;5011723;24;19978;-75
2024/01/11 05:50:28;;;;;;;37.83;17.42;;;;;;;-4.09;100.00;103349.97;4778102;29;20075;-76
2024/01/11 05:52:54;;;;;;;34.00;17.48;;;;;;;-4.06;100.00;103345.97;4777663;29;20037;-75
2024/01/11 05:55:20;;;;;;;43.70;19.92;;;;;;;-4.64;100.00;103363.22;4779008;29;20078;-76
2024/01/11 05:57:45;;;;;;;45.42;19.02;;;;;;;-4.50;100.00;103374.97;4779117;29;20479;-74
2024/01/11 06:00:11;;;;;;;42.08;18.83;;;;;;;-4.66;100.00;103375.41;4777862;29;20215;-74
2024/01/11 06:02:37;;;;;;;39.25;18.75;;;;;;;-4.58;100.00;103373.28;4774975;29;20044;-74
2024/01/11 06:05:02;;;;;;;46.15;20.90;;;;;;;-4.54;100.00;103365.50;4775466;29;20034;-76
2024/01/11 06:07:29;;;;;;;42.65;20.00;;;;;;;-4.20;100.00;103371.69;4772232;29;20169;-76
2024/01/11 06:09:54;;;;;;;37.13;17.65;;;;;;;-4.00;100.00;103369.72;4772712;29;20145;-76
2024/01/11 06:12:19;;;;;;;45.00;19.20;;;;;;;-4.09;100.00;103366.41;4776026;29;20125;-73
2024/01/11 06:14:45;;;;;;;34.42;17.98;;;;;;;-4.00;100.00;103369.72;4778826;29;20436;-73
2024/01/11 06:17:11;;;;;;;46.95;19.30;;;;;;;-3.92;100.00;103360.38;4783706;29;20043;-73
2024/01/11 06:19:38;;;;;;;41.92;18.75;;;;;;;-4.03;100.00;103359.19;4777244;29;20542;-73
2024/01/11 06:22:04;;;;;;;38.70;19.55;;;;;;;-3.94;100.00;103363.38;4774529;29;20117;-75
2024/01/11 06:24:29;;;;;;;43.42;19.60;;;;;;;-3.95;100.00;103356.22;4772090;29;20039;-75
2024/01/11 06:26:54;;;;;;;43.60;19.02;;;;;;;-3.86;100.00;103345.84;4778792;29;20031;-73
2024/01/11 06:29:20;;;;;;;41.95;18.58;;;;;;;-3.90;100.00;103345.47;4776026;29;20043;-73
2024/01/11 06:31:45;;;;;;;39.33;19.33;;;;;;;-3.86;100.00;103342.28;4769976;29;20565;-73
2024/01/11 06:34:10;;;;;;;42.47;20.02;;;;;;;-3.86;100.00;103339.53;4783691;29;20036;-73
2024/01/11 06:36:36;;;;;;;41.67;20.00;;;;;;;-3.92;100.00;103346.72;4777262;29;20047;-75
2024/01/11 06:39:01;;;;;;;40.28;17.83;;;;;;;-4.00;100.00;103342.34;4779518;29;20096;-74
2024/01/11 06:41:26;;;;;;;49.38;20.50;;;;;;;-3.95;100.00;103339.78;4783516;29;20039;-75
2024/01/11 06:43:52;;;;;;;43.35;20.20;;;;;;;-3.99;100.00;103349.50;4777648;29;20043;-72
2024/01/11 06:46:21;;;;;;;43.17;19.85;;;;;;;-3.89;100.00;103357.22;4779800;29;20073;-73
2024/01/11 06:48:47;;;;;;;42.28;20.27;;;;;;;-3.92;100.00;103339.38;4766215;29;20039;-72
2024/01/11 06:51:16;;;;;;;41.50;18.25;;;;;;;-3.91;100.00;103341.03;4779315;29;20839;-73
2024/01/11 06:53:42;;;;;;;50.45;20.75;;;;;;;-3.95;100.00;103345.25;4769044;29;20445;-74
2024/01/11 06:56:18;;;;;;;42.70;19.63;;;;;;;-3.90;100.00;103339.13;4772369;29;20039;-74
2024/01/11 06:58:44;;;;;;;41.00;18.80;;;;;;;-3.86;100.00;103345.00;4771299;29;20040;-76
2024/01/11 07:01:10;;;;;;;40.58;18.88;;;;;;;-3.89;100.00;103354.50;4784505;29;20118;-76
2024/01/11 07:03:36;;;;;;;44.85;19.42;;;;;;;-3.96;100.00;103354.53;4779771;29;20047;-75
2024/01/11 07:06:02;;;;;;;42.30;19.35;;;;;;;-3.85;100.00;103354.91;4781628;29;20398;-75
2024/01/11 07:08:28;;;;;;;39.70;18.98;;;;;;;-3.96;100.00;103351.81;4779227;29;20031;-75
2024/01/11 07:10:53;;;;;;;35.47;18.67;;;;;;;-3.53;100.00;103364.78;4780803;30;20035;-75
2024/01/11 07:13:19;;;;;;;49.72;20.95;;;;;;;-3.74;100.00;103351.47;4779770;30;20035;-75
2024/01/11 07:15:44;;;;;;;43.47;18.83;;;;;;;-3.81;100.00;103346.03;4773278;29;20039;-75
2024/01/11 07:18:10;;;;;;;41.25;19.13;;;;;;;-3.81;100.00;103345.19;4782596;29;20027;-75
2024/01/11 07:20:35;;;;;;;46.03;18.27;;;;;;;-3.81;100.00;103345.19;4775908;29;20071;-75
2024/01/11 07:23:01;;;;;;;50.17;22.05;;;;;;;-3.84;100.00;103323.72;4778061;29;20130;-75
2024/01/11 07:25:26;;;;;;;51.80;22.10;;;;;;;-3.81;100.00;103335.09;4780498;29;20402;-75
2024/01/11 07:27:51;;;;;;;41.63;20.60;;;;;;;-3.55;100.00;103338.69;4781847;29;20035;-74
2024/01/11 07:30:18;;;;;;;47.42;21.27;;;;;;;-3.61;100.00;103362.31;4773980;29;20039;-74
2024/01/11 07:32:44;;;;;;;39.63;18.58;;;;;;;-3.65;100.00;103344.66;4778636;29;20035;-74
2024/01/11 07:35:10;;;;;;;52.92;21.67;;;;;;;-3.59;100.00;103338.28;4793062;29;20122;-74
2024/01/11 07:37:36;;;;;;;47.35;19.33;;;;;;;-3.62;100.00;103327.78;4775787;29;20072;-74
2024/01/11 07:40:02;;;;;;;42.72;18.90;;;;;;;-3.58;100.00;103331.78;4778507;29;20541;-74
2024/01/11 07:42:28;;;;;;;36.60;20.50;;;;;;;-3.54;100.00;103341.22;4780373;29;20031;-75
2024/01/11 07:44:53;;;;;;;40.47;19.80;;;;;;;-3.54;100.00;103329.41;4775923;29;20484;-75
2024/01/11 07:47:18;;;;;;;41.97;19.42;;;;;;;-3.53;100.00;103348.34;4776983;29;20668;-75
2024/01/11 07:49:44;;;;;;;46.45;20.27;;;;;;;-3.50;100.00;103331.50;4778072;29;20054;-75
2024/01/11 07:52:09;;;;;;;54.35;21.33;;;;;;;-3.48;100.00;103334.84;4778412;29;20502;-75
2024/01/11 07:54:35;;;;;;;45.28;21.77;;;;;;;-3.45;100.00;103346.41;4781006;29;20131;-75
2024/01/11 07:57:02;;;;;;;40.40;19.70;;;;;;;-3.44;100.00;103350.81;4777939;29;20038;-75
2024/01/11 07:59:28;;;;;;;44.78;19.35;;;;;;;-3.41;100.00;103362.19;4775229;29;20032;-75
2024/01/11 08:01:54;;;;;;;42.80;18.52;;;;;;;-3.36;100.00;103372.47;4776428;29;20130;-74
2024/01/11 08:04:20;;;;;;;43.40;18.35;;;;;;;-3.33;100.00;103377.47;4780167;29;20041;-75
2024/01/11 08:06:46;;;;;;;35.45;18.05;;;;;;;-3.32;100.00;103381.91;4776461;30;20032;-72
2024/01/11 08:09:13;;;;;;;49.47;17.70;;;;;;;-3.29;100.00;103389.66;4794655;29;20454;-72
2024/01/11 08:11:38;;;;;;;42.10;18.30;;;;;;;-3.24;100.00;103384.38;4777647;29;20035;-72
2024/01/11 08:14:05;;;;;;;46.20;18.33;;;;;;;-3.23;100.00;103380.56;4778931;29;20114;-72
2024/01/11 08:16:30;;;;;;;40.85;17.00;;;;;;;-3.22;100.00;103370.47;4776771;29;20040;-72
2024/01/11 08:18:55;;;;;;;41.70;18.60;;;;;;;-3.20;100.00;103368.34;4780036;29;20027;-72
2024/01/11 08:21:21;;;;;;;42.75;18.65;;;;;;;-3.18;100.00;103371.66;4784098;29;20039;-71
2024/01/11 08:23:48;;;;;;;42.10;16.00;;;;;;;-3.13;100.00;103375.44;4777041;29;20161;-72
2024/01/11 08:26:18;;;;;;;41.00;18.52;;;;;;;-3.14;100.00;103357.31;4780778;29;20033;-72
2024/01/11 08:28:44;;;;;;;56.28;20.20;;;;;;;-2.33;100.00;103355.41;4777879;29;20038;-74
2024/01/11 08:31:09;;;;;;;49.63;21.30;;;;;;;-2.84;100.00;103351.13;4781888;29;20442;-74
2024/01/11 08:33:36;;;;;;;51.25;19.65;;;;;;;-3.04;100.00;103347.75;4778969;29;20388;-73
2024/01/11 08:36:03;;;;;;;59.42;23.25;;;;;;;-2.96;100.00;103358.41;4779712;29;20478;-74
2024/01/11 08:38:29;;;;;;;50.55;20.50;;;;;;;-2.73;100.00;103366.81;4782657;29;20483;-73
2024/01/11 08:40:55;;;;;;;53.85;20.35;;;;;;;-2.51;100.00;103382.81;4781627;29;20038;-74
2024/01/11 08:43:20;;;;;;;49.35;18.00;;;;;;;-2.47;100.00;103373.94;4783152;29;20452;-74
2024/01/11 08:45:46;;;;;;;53.58;19.05;;;;;;;-2.40;100.00;103379.34;4781185;29;20149;-73
2024/01/11 08:48:13;;;;;;;39.22;18.33;;;;;;;-2.44;100.00;103382.78;4779516;29;20133;-73
2024/01/11 08:50:38;;;;;;;52.97;20.13;;;;;;;-2.53;100.00;103380.34;4782371;29;20118;-73
2024/01/11 08:53:04;;;;;;;43.70;18.25;;;;;;;-2.54;100.00;103378.66;4779754;29;20538;-72
2024/01/11 08:55:29;;;;;;;46.03;19.23;;;;;;;-2.44;100.00;103385.53;4790476;29;20049;-73
2024/01/11 08:57:54;;;;;;;50.88;20.83;;;;;;;-2.38;100.00;103382.69;4784696;29;20082;-74
2024/01/11 09:00:20;;;;;;;45.72;18.45;;;;;;;-2.16;100.00;103376.72;4780777;29;20035;-75
2024/01/11 09:02:45;;;;;;;51.63;20.17;;;;;;;-2.28;100.00;103369.28;4783372;29;20042;-74
2024/01/11 09:05:11;;;;;;;47.30;17.75;;;;;;;-2.42;100.00;103370.50;4780004;29;20038;-73
2024/01/11 09:07:37;;;;;;;51.63;21.15;;;;;;;-2.22;100.00;103363.94;4782297;30;20038;-73
2024/01/11 09:10:03;;;;;;;52.80;18.98;;;;;;;-2.17;100.00;103377.78;4780912;29;20067;-73
2024/01/11 09:12:28;;;;;;;52.97;18.45;;;;;;;-2.21;100.00;103369.19;4782280;29;20118;-73
2024/01/11 09:14:54;;;;;;;47.95;19.40;;;;;;;-2.23;100.00;103373.22;4778721;29;20406;-73
2024/01/11 09:17:20;;;;;;;49.67;21.63;;;;;;;-2.09;100.00;103372.84;4781332;29;20035;-76
2024/01/11 09:19:45;;;;;;;51.33;18.38;;;;;;;-1.99;100.00;103383.25;4777233;29;20054;-76
2024/01/11 09:22:10;;;;;;;46.10;18.00;;;;;;;-1.94;100.00;103388.91;4782458;29;20454;-76
2024/01/11 09:24:36;;;;;;;56.60;21.05;;;;;;;-2.02;100.00;103393.84;4781325;29;20466;-76
2024/01/11 09:27:03;;;;;;;41.97;19.13;;;;;;;-2.11;100.00;103390.59;4797124;29;20451;-76
2024/01/11 09:29:28;;;;;;;56.10;19.67;;;;;;;-2.04;100.00;103388.63;4772416;30;20305;-76
2024/01/11 09:31:53;;;;;;;49.17;18.45;;;;;;;-1.84;100.00;103382.84;4781259;29;20039;-76
2024/01/11 09:34:19;;;;;;;46.92;19.75;;;;;;;-1.90;100.00;103381.88;4773087;29;20466;-76
2024/01/11 09:36:45;;;;;;;48.03;21.08;;;;;;;-1.81;100.00;103384.28;4783089;29;20050;-76
2024/01/11 09:39:13;;;;;;;54.50;19.50;;;;;;;-1.84;100.00;103377.34;4779543;29;20474;-76
2024/01/11 09:41:43;;;;;;;40.22;19.65;;;;;;;-1.75;100.00;103383.34;4780551;29;20121;-76
2024/01/11 09:44:09;;;;;;;55.30;21.95;;;;;;;-1.77;100.00;103382.75;4776099;30;20031;-76
2024/01/11 09:46:34;;;;;;;44.53;20.58;;;;;;;-1.70;100.00;103394.50;4782238;29;20110;-76
2024/01/11 09:49:02;;;;;;;57.38;19.63;;;;;;;-1.59;100.00;103401.94;4773784;29;20086;-76
2024/01/11 09:51:29;;;;;;;43.70;18.50;;;;;;;-1.56;100.00;103400.63;4783068;29;20391;-76
2024/01/11 09:53:56;;;;;;;46.65;21.48;;;;;;;-1.56;100.00;103408.84;4792800;29;20031;-76
2024/01/11 09:56:22;;;;;;;50.40;18.02;;;;;;;-1.58;100.00;103408.25;4782187;29;20054;-76
2024/01/11 09:58:50;;;;;;;42.47;18.83;;;;;;;-1.38;100.00;103407.97;4778182;29;20049;-76
2024/01/11 10:01:16;;;;;;;47.10;19.10;;;;;;;-1.45;100.00;103397.91;4781243;30;20120;-76
2024/01/11 10:03:44;;;;;;;46.05;17.88;;;;;;;-1.37;100.00;103399.50;4775767;30;20640;-75
2024/01/11 10:06:10;;;;;;;58.25;19.92;;;;;;;-1.43;100.00;103411.44;4777875;29;20031;-76
2024/01/11 10:08:35;;;;;;;57.53;22.92;;;;;;;-1.47;100.00;103418.47;4779975;29;20044;-76
2024/01/11 10:11:02;;;;;;;50.50;20.65;;;;;;;-1.46;100.00;103423.69;4777024;29;20039;-76
2024/01/11 10:13:29;;;;;;;48.38;18.63;;;;;;;-1.34;100.00;103426.50;4776206;29;20032;-75
2024/01/11 10:16:13;;;;;;;50.70;20.05;;;;;;;-1.32;100.00;103435.34;4783190;29;20124;-76
2024/01/11 10:18:39;;;;;;;52.65;20.27;;;;;;;-1.23;100.00;103433.09;4777232;29;20042;-76
2024/01/11 10:21:05;;;;;;;55.63;22.75;;;;;;;-1.44;100.00;103434.47;4783291;29;20062;-76
2024/01/11 10:23:33;;;;;;;54.67;20.77;;;;;;;-1.41;100.00;103424.91;4779837;29;20495;-76
2024/01/11 10:25:59;;;;;;;61.20;21.77;;;;;;;-1.49;100.00;103440.66;4778259;29;20043;-76
2024/01/11 10:28:26;;;;;;;45.05;19.40;;;;;;;-1.32;100.00;103434.50;4782767;29;20058;-76
2024/01/11 10:30:53;;;;;;;53.95;20.85;;;;;;;-1.25;100.00;103429.72;4780351;29;20050;-76
2024/01/11 10:33:22;;;;;;;55.20;20.60;;;;;;;-1.37;100.00;103417.88;4782797;29;20027;-76
2024/01/11 10:35:50;;;;;;;49.88;20.30;;;;;;;-1.36;100.00;103414.06;4780701;29;20039;-76
2024/01/11 10:38:17;;;;;;;51.58;19.67;;;;;;;-1.18;100.00;103405.75;4777209;29;20097;-75
2024/01/11 10:40:42;;;;;;;48.70;20.00;;;;;;;-1.13;100.00;103408.63;4776289;29;20498;-75
2024/01/11 10:43:15;;;;;;;57.03;21.23;;;;;;;-1.08;100.00;103403.22;4776230;29;20037;-75
2024/01/11 10:45:41;;;;;;;;;;;;;;;-1.12;100.00;103407.53;4778121;29;20162;-75
2024/01/11 10:48:14;;;;;;;49.05;18.02;;;;;;;-0.99;100.00;103406.50;4780743;29;20008;-73
2024/01/11 10:50:42;;;;;;;;;;;;;;;-1.15;100.00;103401.69;4777243;29;20085;-73
2024/01/11 10:53:27;;;;;;;48.85;19.60;;;;;;;-1.10;100.00;103388.88;4781409;29;20456;-72
2024/01/11 10:55:55;;;;;;;43.28;19.45;;;;;;;-0.90;100.00;103409.72;4778978;29;20035;-73
2024/01/11 10:58:22;;;;;;;46.97;18.27;;;;;;;-0.79;100.00;103410.81;4777231;29;20036;-75
2024/01/11 11:00:49;;;;;;;50.03;18.80;;;;;;;-0.69;100.00;103400.88;4779542;29;20079;-73
2024/01/11 11:03:16;;;;;;;50.03;18.48;;;;;;;-0.82;100.00;103401.13;4779035;29;20039;-73
2024/01/11 11:05:42;;;;;;;46.20;20.35;;;;;;;-0.66;100.00;103403.13;4781468;30;20069;-75
2024/01/11 11:08:10;;;;;;;48.83;19.02;;;;;;;-0.57;100.00;103397.28;4774778;29;20073;-73
2024/01/11 11:10:36;;;;;;;51.70;20.60;;;;;;;-0.63;100.00;103399.91;4790396;29;20466;-72
2024/01/11 11:13:03;;;;;;;48.35;18.70;;;;;;;-0.71;100.00;103394.78;4780938;29;20046;-73
2024/01/11 11:15:28;;;;;;;51.90;19.30;;;;;;;-0.65;100.00;103396.56;4779649;29;20040;-74
2024/01/11 11:17:54;;;;;;;46.70;17.50;;;;;;;-0.68;100.00;103380.53;4779692;29;20499;-75
2024/01/11 11:20:19;;;;;;;44.47;18.90;;;;;;;-0.44;100.00;103386.03;4778689;29;20498;-73
2024/01/11 11:23:03;;;;;;;48.25;20.67;;;;;;;-0.36;100.00;103371.03;4771831;29;20375;-74
2024/01/11 11:25:30;;;;;;;41.10;18.02;;;;;;;-0.37;100.00;103364.72;4776800;29;20479;-74
2024/01/11 11:27:55;;;;;;;39.42;17.25;;;;;;;-0.37;100.00;103359.22;4778234;29;20062;-74
2024/01/11 11:30:21;;;;;;;51.60;21.00;;;;;;;-0.26;100.00;103358.34;4773304;29;20040;-75
2024/01/11 11:32:46;;;;;;;46.00;18.88;;;;;;;-0.22;100.00;103355.94;4775079;29;20039;-74
2024/01/11 11:35:12;;;;;;;54.75;23.83;;;;;;;-0.33;100.00;103360.41;4775284;29;20032;-75
2024/01/11 11:37:38;;;;;;;57.03;22.48;;;;;;;-0.51;100.00;103355.03;4776091;30;20038;-73
2024/01/11 11:40:10;;;;;;;49.50;21.77;;;;;;;-0.37;100.00;103345.44;4775918;29;20406;-73
2024/01/11 11:42:36;;;;;;;56.25;24.27;;;;;;;-0.23;100.00;103344.09;4780813;29;20042;-73
2024/01/11 11:45:01;;;;;;;54.03;19.75;;;;;;;-0.28;100.00;103346.72;4790718;29;20043;-75
2024/01/11 11:47:34;;;;;;;51.05;23.63;;;;;;;-0.34;100.00;103344.13;4781370;29;20066;-76
2024/01/11 11:50:06;;;;;;;;;;;;;;;-0.36;100.00;103338.84;4781367;29;20440;-75
2024/01/11 11:52:36;;;;;;;45.75;17.95;;;;;;;-0.35;100.00;103346.03;4781312;29;19927;-75
2024/01/11 11:55:02;;;;;;;45.80;19.42;;;;;;;-0.21;100.00;103346.63;4780916;29;20035;-75
2024/01/11 11:57:28;;;;;;;63.45;22.80;;;;;;;-0.08;100.00;103346.31;4780508;29;20075;-75
2024/01/11 11:59:58;;;;;;;48.15;20.27;;;;;;;-0.03;100.00;103348.31;4780024;29;20027;-75
2024/01/11 12:02:25;;;;;;;47.15;22.52;;;;;;;-0.05;100.00;103347.75;4784936;29;20039;-75
2024/01/11 12:04:51;;;;;;;52.25;21.92;;;;;;;0.02;100.00;103336.56;4785344;29;20146;-75
2024/01/11 12:07:16;;;;;;;43.15;18.33;;;;;;;-0.21;100.00;103336.44;4782631;29;20125;-75
2024/01/11 12:09:42;;;;;;;44.95;20.23;;;;;;;-0.21;100.00;103327.34;4781844;29;20039;-75
2024/01/11 12:12:08;;;;;;;51.03;22.73;;;;;;;-0.16;100.00;103321.09;4785108;29;20528;-75
2024/01/11 12:14:34;;;;;;;49.25;18.85;;;;;;;-0.08;100.00;103320.72;4791700;29;20099;-75
2024/01/11 12:17:00;;;;;;;50.15;19.38;;;;;;;-0.09;100.00;103327.28;4783276;29;20544;-75
2024/01/11 12:19:25;;;;;;;48.70;19.67;;;;;;;0.12;100.00;103323.00;4781500;29;20043;-75
2024/01/11 12:21:51;;;;;;;58.20;22.38;;;;;;;0.07;100.00;103323.75;4782429;29;20515;-75
2024/01/11 12:24:17;;;;;;;49.13;20.85;;;;;;;0.07;100.00;103321.00;4778979;29;20459;-75
2024/01/11 12:26:43;;;;;;;50.88;20.63;;;;;;;0.19;100.00;103312.66;4780492;29;20100;-75
2024/01/11 12:29:09;;;;;;;51.20;19.20;;;;;;;0.23;100.00;103301.97;4784023;29;20039;-75
2024/01/11 12:31:35;;;;;;;43.40;19.02;;;;;;;0.22;100.00;103300.34;4782998;29;20039;-75
2024/01/11 12:34:04;;;;;;;43.85;18.80;;;;;;;0.32;100.00;103290.31;4777460;29;20034;-75
2024/01/11 12:36:30;;;;;;;40.58;18.55;;;;;;;0.22;100.00;103297.56;4783788;29;20069;-75
2024/01/11 12:38:55;;;;;;;48.45;19.60;;;;;;;0.19;100.00;103285.97;4781477;29;20518;-75
2024/01/11 12:41:24;;;;;;;49.97;18.45;;;;;;;0.38;100.00;103285.72;4782832;29;20038;-75
2024/01/11 12:43:49;;;;;;;46.95;18.50;;;;;;;0.44;100.00;103298.50;4785924;29;20036;-75
2024/01/11 12:46:15;;;;;;;50.88;20.58;;;;;;;0.51;100.00;103293.66;4783458;29;20087;-75
2024/01/11 12:48:41;;;;;;;40.55;17.27;;;;;;;0.57;100.00;103289.91;4780062;29;20506;-75
2024/01/11 12:51:07;;;;;;;45.28;18.30;;;;;;;0.57;100.00;103289.91;4784556;29;20036;-75
2024/01/11 12:53:33;;;;;;;50.38;19.80;;;;;;;0.46;100.00;103304.59;4783116;29;20035;-75
2024/01/11 12:56:10;;;;;;;36.85;16.73;;;;;;;0.52;100.00;103292.56;4779375;29;20035;-75
2024/01/11 12:58:39;;;;;;;49.35;18.00;;;;;;;0.62;100.00;103283.66;4779257;30;20035;-73
2024/01/11 13:01:07;;;;;;;43.00;18.92;;;;;;;0.66;100.00;103275.72;4784191;29;20039;-74
2024/01/11 13:03:33;;;;;;;34.53;17.67;;;;;;;0.59;100.00;103268.44;4777954;29;20127;-75
2024/01/11 13:05:58;;;;;;;40.80;15.77;;;;;;;0.69;100.00;103278.78;4781687;29;20147;-73
2024/01/11 13:08:24;;;;;;;41.08;18.38;;;;;;;0.50;100.00;103267.19;4778227;29;20107;-76
2024/01/11 13:10:50;;;;;;;44.17;17.13;;;;;;;1.16;100.00;103261.84;4780953;29;20049;-76
2024/01/11 13:13:15;;;;;;;38.03;17.33;;;;;;;0.50;100.00;103258.91;4774191;29;20027;-76
2024/01/11 13:15:41;;;;;;;39.38;18.27;;;;;;;0.46;100.00;103256.91;4780137;29;20050;-76
2024/01/11 13:18:06;;;;;;;41.75;17.80;;;;;;;0.35;100.00;103244.91;4779885;30;20031;-76
2024/01/11 13:20:32;;;;;;;24.73;11.95;;;;;;;1.25;100.00;103231.03;4780025;29;20123;-76
2024/01/11 13:23:19;;;;;;;47.58;17.20;;;;;;;2.34;100.00;103226.31;4779573;29;20394;-76
2024/01/11 13:25:46;;;;;;;45.95;17.58;;;;;;;2.15;100.00;103223.97;4781398;29;20042;-76
2024/01/11 13:28:12;;;;;;;36.03;13.75;;;;;;;1.10;100.00;103231.69;4773088;29;20070;-76
2024/01/11 13:30:39;;;;;;;32.72;15.75;;;;;;;1.63;100.00;103232.84;4771999;29;20126;-76
2024/01/11 13:33:05;;;;;;;21.15;11.27;;;;;;;2.03;100.00;103226.06;4775404;29;20093;-76
2024/01/11 13:35:30;;;;;;;47.03;15.95;;;;;;;2.70;100.00;103226.56;4778873;29;20035;-76
2024/01/11 13:37:55;;;;;;;36.92;14.48;;;;;;;2.14;100.00;103224.25;4779873;29;20034;-75
2024/01/11 13:40:21;;;;;;;36.85;16.73;;;;;;;1.04;100.00;103224.44;4779300;29;20042;-75
2024/01/11 13:42:46;;;;;;;27.20;14.05;;;;;;;0.96;100.00;103228.44;4774966;29;20039;-76
2024/01/11 13:45:12;;;;;;;27.60;12.52;;;;;;;2.14;100.00;103221.47;4778498;29;20070;-75
2024/01/11 13:47:38;;;;;;;37.45;16.40;;;;;;;2.18;100.00;103228.97;4773581;29;20565;-75
2024/01/11 13:50:04;;;;;;;44.78;19.58;;;;;;;2.21;100.00;103239.50;4775186;29;20038;-76
2024/01/11 13:52:29;;;;;;;40.75;17.88;;;;;;;1.58;100.00;103235.53;4778922;29;20038;-75
2024/01/11 13:54:54;;;;;;;35.10;15.35;;;;;;;1.46;100.00;103238.47;4777367;29;20429;-76
2024/01/11 13:57:20;;;;;;;35.78;13.80;;;;;;;1.09;100.00;103243.78;4776225;29;20035;-76
2024/01/11 13:59:46;;;;;;;37.78;14.80;;;;;;;0.93;100.00;103243.59;4779262;30;20069;-76
2024/01/11 14:02:13;;;;;;;31.13;14.90;;;;;;;2.62;100.00;103242.59;4780972;29;20146;-75
2024/01/11 14:04:38;;;;;;;32.70;15.15;;;;;;;2.27;100.00;103248.66;4778301;29;20122;-75
2024/01/11 14:07:05;;;;;;;33.83;14.45;;;;;;;3.63;100.00;103242.53;4778160;29;20473;-74
2024/01/11 14:09:30;;;;;;;39.90;17.02;;;;;;;2.82;100.00;103241.03;4777051;30;20223;-74
2024/01/11 14:11:55;;;;;;;32.47;15.38;;;;;;;1.68;100.00;103246.69;4776314;29;20118;-74
2024/01/11 14:14:21;;;;;;;33.05;13.65;;;;;;;2.08;100.00;103242.69;4774723;29;20034;-75
2024/01/11 14:16:47;;;;;;;36.33;14.10;;;;;;;1.85;100.00;103234.72;4779448;29;20081;-78
2024/01/11 14:19:13;;;;;;;37.67;16.85;;;;;;;1.91;100.00;103226.22;4778496;30;20031;-76
2024/01/11 14:21:38;;;;;;;38.47;17.95;;;;;;;2.28;100.00;103227.38;4780944;29;20031;-76
2024/01/11 14:24:04;;;;;;;33.53;14.90;;;;;;;2.44;100.00;103231.94;4780588;29;20048;-76
2024/01/11 14:26:31;;;;;;;42.88;19.55;;;;;;;2.33;100.00;103227.44;4780519;29;20043;-76
2024/01/11 14:28:57;;;;;;;30.92;14.45;;;;;;;2.82;100.00;103225.28;4781546;29;20080;-75
2024/01/11 14:31:22;;;;;;;38.97;16.40;;;;;;;1.80;100.00;103228.06;4794283;29;20406;-75
2024/01/11 14:33:50;;;;;;;27.58;12.38;;;;;;;2.16;100.00;103220.09;4780143;29;20450;-76
2024/01/11 14:36:15;;;;;;;47.88;17.83;;;;;;;1.56;100.00;103232.22;4779777;29;20537;-76
2024/01/11 14:38:42;;;;;;;42.63;16.50;;;;;;;1.93;100.00;103251.66;4781070;29;20255;-76
2024/01/11 14:41:09;;;;;;;34.95;15.90;;;;;;;1.54;100.00;103245.44;4782161;29;20220;-77
2024/01/11 14:43:35;;;;;;;32.53;14.70;;;;;;;1.39;100.00;103249.72;4777955;29;20066;-76
2024/01/11 14:46:00;;;;;;;28.00;14.07;;;;;;;2.14;100.00;103244.41;4780041;29;20398;-76
2024/01/11 14:48:26;;;;;;;30.90;13.65;;;;;;;1.86;100.00;103251.06;4778103;29;20113;-77
2024/01/11 14:50:52;;;;;;;35.38;14.80;;;;;;;1.91;100.00;103244.75;4776425;29;20457;-76
2024/01/11 14:53:18;;;;;;;38.45;15.60;;;;;;;2.46;100.00;103245.50;4792113;29;20101;-77
2024/01/11 14:55:43;;;;;;;26.27;10.95;;;;;;;3.65;100.00;103241.16;4777359;29;20035;-76
2024/01/11 14:58:09;;;;;;;35.70;15.45;;;;;;;1.88;100.00;103242.47;4793016;29;20031;-75
2024/01/11 15:00:34;;;;;;;28.98;11.13;;;;;;;3.52;100.00;103240.81;4777840;29;20348;-76
2024/01/11 15:03:00;;;;;;;21.23;10.18;;;;;;;2.74;100.00;103230.47;4782948;29;20398;-75
2024/01/11 15:05:25;;;;;;;29.60;13.80;;;;;;;3.36;100.00;103231.63;4779740;29;20043;-76
2024/01/11 15:07:50;;;;;;;28.05;11.43;;;;;;;3.17;100.00;103226.56;4777643;29;20027;-76
2024/01/11 15:10:16;;;;;;;30.60;12.80;;;;;;;3.65;100.00;103218.16;4774695;29;20092;-75
2024/01/11 15:12:42;;;;;;;36.53;14.93;;;;;;;1.88;100.00;103217.63;4773318;29;20081;-75
2024/01/11 15:15:08;;;;;;;22.42;11.57;;;;;;;2.84;100.00;103211.19;4780811;29;20031;-76
2024/01/11 15:17:33;;;;;;;29.65;10.32;;;;;;;3.28;100.00;103202.53;4778784;30;20028;-75
2024/01/11 15:19:58;;;;;;;32.58;15.13;;;;;;;1.81;100.00;103201.28;4776835;29;20035;-77
2024/01/11 15:22:24;;;;;;;23.88;11.13;;;;;;;2.36;100.00;103204.78;4775734;30;20070;-76
2024/01/11 15:24:52;;;;;;;30.10;12.38;;;;;;;2.21;100.00;103211.03;4776256;29;20391;-75
2024/01/11 15:27:21;;;;;;;28.85;13.80;;;;;;;1.83;100.00;103215.66;4780169;29;20035;-71
2024/01/11 15:29:47;;;;;;;21.92;10.27;;;;;;;2.44;100.00;103212.59;4776235;30;20047;-72
2024/01/11 15:32:15;;;;;;;28.83;10.85;;;;;;;2.53;100.00;103207.38;4775855;29;20115;-72
2024/01/11 15:34:41;;;;;;;21.58;11.27;;;;;;;2.41;100.00;103210.38;4777860;29;20054;-75
2024/01/11 15:37:09;;;;;;;25.98;12.05;;;;;;;3.01;100.00;103208.22;4779739;29;20478;-74
2024/01/11 15:39:35;;;;;;;27.60;13.00;;;;;;;2.16;100.00;103209.06;4776382;29;20043;-76
2024/01/11 15:42:02;;;;;;;27.08;11.93;;;;;;;3.72;100.00;103196.56;4779438;29;20529;-73
2024/01/11 15:44:28;;;;;;;34.72;16.10;;;;;;;1.96;100.00;103211.63;4775709;29;20039;-73
2024/01/11 15:46:54;;;;;;;33.50;13.70;;;;;;;1.56;100.00;103201.84;4773939;30;20058;-73
2024/01/11 15:49:20;;;;;;;32.78;16.30;;;;;;;1.65;100.00;103194.78;4776043;29;20031;-74
2024/01/11 15:51:46;;;;;;;28.48;13.77;;;;;;;2.65;100.00;103203.31;4780478;29;20042;-72
2024/01/11 15:54:11;;;;;;;26.75;12.25;;;;;;;2.32;100.00;103193.44;4781623;29;20035;-73
2024/01/11 15:56:36;;;;;;;25.77;12.45;;;;;;;2.33;100.00;103197.84;4777452;29;20118;-74
2024/01/11 15:59:03;;;;;;;33.92;15.20;;;;;;;2.22;100.00;103207.19;4779090;29;20522;-72
2024/01/11 16:01:29;;;;;;;32.17;15.00;;;;;;;2.13;100.00;103212.34;4777363;29;20089;-72
2024/01/11 16:03:54;;;;;;;38.15;17.60;;;;;;;2.90;100.00;103207.34;4776928;30;20086;-73
2024/01/11 16:06:19;;;;;;;37.63;16.55;;;;;;;3.66;100.00;103225.34;4775186;29;20050;-73
2024/01/11 16:08:47;;;;;;;27.83;14.73;;;;;;;2.73;100.00;103215.81;4774844;29;20122;-71
2024/01/11 16:11:13;;;;;;;30.80;14.57;;;;;;;2.02;100.00;103216.09;4772436;29;20466;-72
2024/01/11 16:13:40;;;;;;;33.72;14.55;;;;;;;1.78;100.00;103213.69;4777249;29;20130;-71
2024/01/11 16:16:05;;;;;;;37.80;17.27;;;;;;;1.50;100.00;103211.19;4778235;29;20038;-72
2024/01/11 16:18:34;;;;;;;37.25;15.27;;;;;;;1.33;100.00;103214.00;4782178;29;20125;-72
2024/01/11 16:20:59;;;;;;;29.98;14.57;;;;;;;1.41;100.00;103219.06;4778243;29;20087;-73
2024/01/11 16:23:25;;;;;;;28.88;14.82;;;;;;;1.16;100.00;103222.34;4784224;29;20185;-72
2024/01/11 16:25:51;;;;;;;31.98;15.38;;;;;;;1.34;100.00;103218.44;4786694;29;20031;-72
2024/01/11 16:28:16;;;;;;;38.53;15.73;;;;;;;1.34;100.00;103219.28;4782816;29;20043;-72
2024/01/11 16:30:42;;;;;;;34.22;14.55;;;;;;;1.41;100.00;103219.06;4772717;29;20040;-71
2024/01/11 16:33:09;;;;;;;30.63;14.95;;;;;;;1.21;100.00;103214.97;4782502;29;20049;-73
2024/01/11 16:35:35;;;;;;;28.95;14.60;;;;;;;1.24;100.00;103199.84;4782004;29;20414;-73
2024/01/11 16:38:00;;;;;;;30.17;14.18;;;;;;;1.28;100.00;103191.88;4784165;29;20031;-75
2024/01/11 16:40:26;;;;;;;30.25;15.48;;;;;;;1.21;100.00;103197.59;4782847;29;20035;-74
2024/01/11 16:42:51;;;;;;;34.35;15.13;;;;;;;1.15;100.00;103198.63;4779999;29;20046;-74
2024/01/11 16:45:18;;;;;;;30.15;14.45;;;;;;;1.10;100.00;103191.13;4785848;29;20508;-74
2024/01/11 16:47:43;;;;;;;34.58;14.98;;;;;;;1.15;100.00;103198.63;4777471;29;20181;-76